sensor_id;sensor_type;location;lat;lon;timestamp;pressure;altitude;pressure_sealevel;temperature;humidity
40285;BME280;25997;50.214;19.354;2022-07-29T00:01:58;98106.88;;;16.32;45.82
40285;BME280;25997;50.214;19.354;2022-07-29T00:05:03;98115.69;;;16.29;45.95
40285;BME280;25997;50.214;19.354;2022-07-29T00:08:05;98114.81;;;16.30;45.95
40285;BME280;25997;50.214;19.354;2022-07-29T00:11:08;98102.44;;;16.29;46.04
40285;BME280;25997;50.214;19.354;2022-07-29T00:14:11;98101.56;;;16.26;45.83
40285;BME280;25997;50.214;19.354;2022-07-29T00:17:13;98110.41;;;16.28;45.72
40285;BME280;25997;50.214;19.354;2022-07-29T00:20:17;98098.03;;;16.24;45.80
40285;BME280;25997;50.214;19.354;2022-07-29T00:23:20;98097.09;;;16.20;45.71
40285;BME280;25997;50.214;19.354;2022-07-29T00:26:23;98091.78;;;16.16;45.52
40285;BME280;25997;50.214;19.354;2022-07-29T00:29:26;98091.75;;;16.11;45.81
40285;BME280;25997;50.214;19.354;2022-07-29T00:32:28;98091.75;;;16.08;45.47
40285;BME280;25997;50.214;19.354;2022-07-29T00:35:32;98096.16;;;16.09;45.37
40285;BME280;25997;50.214;19.354;2022-07-29T00:38:47;98085.56;;;16.09;45.14
40285;BME280;25997;50.214;19.354;2022-07-29T00:41:50;98095.28;;;16.12;44.76
40285;BME280;25997;50.214;19.354;2022-07-29T00:44:52;98092.66;;;16.13;44.62
40285;BME280;25997;50.214;19.354;2022-07-29T00:47:55;98086.47;;;16.14;44.47
40285;BME280;25997;50.214;19.354;2022-07-29T00:51:01;98092.66;;;16.18;44.21
40285;BME280;25997;50.214;19.354;2022-07-29T00:54:05;98086.50;;;16.19;43.92
40285;BME280;25997;50.214;19.354;2022-07-29T00:57:07;98082.09;;;16.19;43.99
40285;BME280;25997;50.214;19.354;2022-07-29T01:00:12;98079.44;;;16.22;43.64
40285;BME280;25997;50.214;19.354;2022-07-29T01:03:16;98080.34;;;16.24;43.48
40285;BME280;25997;50.214;19.354;2022-07-29T01:06:20;98079.47;;;16.31;42.88
40285;BME280;25997;50.214;19.354;2022-07-29T01:09:23;98078.63;;;16.37;42.81
40285;BME280;25997;50.214;19.354;2022-07-29T01:12:29;98078.69;;;16.43;42.34
40285;BME280;25997;50.214;19.354;2022-07-29T01:15:40;98072.50;;;16.45;42.30
40285;BME280;25997;50.214;19.354;2022-07-29T01:18:46;98074.28;;;16.49;41.93
40285;BME280;25997;50.214;19.354;2022-07-29T01:21:55;98072.53;;;16.53;42.08
40285;BME280;25997;50.214;19.354;2022-07-29T01:25:17;98068.97;;;16.56;41.91
40285;BME280;25997;50.214;19.354;2022-07-29T01:29:00;98076.97;;;16.63;41.63
40285;BME280;25997;50.214;19.354;2022-07-29T01:32:06;98076.09;;;16.64;41.76
40285;BME280;25997;50.214;19.354;2022-07-29T01:35:15;98081.41;;;16.67;41.62
40285;BME280;25997;50.214;19.354;2022-07-29T01:38:20;98072.59;;;16.79;40.85
40285;BME280;25997;50.214;19.354;2022-07-29T01:41:25;98070.81;;;16.73;41.01
40285;BME280;25997;50.214;19.354;2022-07-29T01:44:35;98064.63;;;16.74;41.07
40285;BME280;25997;50.214;19.354;2022-07-29T01:47:42;98058.44;;;16.75;40.87
40285;BME280;25997;50.214;19.354;2022-07-29T01:50:48;98055.81;;;16.80;40.87
40285;BME280;25997;50.214;19.354;2022-07-29T01:53:55;98049.63;;;16.84;40.57
40285;BME280;25997;50.214;19.354;2022-07-29T01:57:00;98054.91;;;16.85;40.37
40285;BME280;25997;50.214;19.354;2022-07-29T02:00:07;98053.16;;;16.90;40.20
40285;BME280;25997;50.214;19.354;2022-07-29T02:03:13;98050.50;;;16.95;40.21
40285;BME280;25997;50.214;19.354;2022-07-29T02:06:21;98047.84;;;16.96;40.12
40285;BME280;25997;50.214;19.354;2022-07-29T02:09:25;98046.09;;;17.01;40.43
40285;BME280;25997;50.214;19.354;2022-07-29T02:12:29;98046.09;;;17.07;40.13
40285;BME280;25997;50.214;19.354;2022-07-29T02:15:35;98042.56;;;17.10;39.96
40285;BME280;25997;50.214;19.354;2022-07-29T02:18:40;98036.38;;;17.15;40.17
40285;BME280;25997;50.214;19.354;2022-07-29T02:21:45;98036.34;;;17.18;39.86
40285;BME280;25997;50.214;19.354;2022-07-29T02:24:50;98037.28;;;17.22;39.76
40285;BME280;25997;50.214;19.354;2022-07-29T02:27:54;98031.97;;;17.28;39.70
40285;BME280;25997;50.214;19.354;2022-07-29T02:31:01;98029.31;;;17.30;39.75
40285;BME280;25997;50.214;19.354;2022-07-29T02:34:06;98032.84;;;17.30;39.93
40285;BME280;25997;50.214;19.354;2022-07-29T02:37:11;98026.63;;;17.31;40.02
40285;BME280;25997;50.214;19.354;2022-07-29T02:40:14;98035.50;;;17.35;39.61
40285;BME280;25997;50.214;19.354;2022-07-29T02:43:17;98039.03;;;17.34;39.95
40285;BME280;25997;50.214;19.354;2022-07-29T02:46:27;98033.72;;;17.37;39.65
40285;BME280;25997;50.214;19.354;2022-07-29T02:49:35;98031.06;;;17.37;39.93
40285;BME280;25997;50.214;19.354;2022-07-29T02:52:42;98026.66;;;17.42;39.77
40285;BME280;25997;50.214;19.354;2022-07-29T02:55:48;98031.06;;;17.47;39.73
40285;BME280;25997;50.214;19.354;2022-07-29T02:58:55;98038.13;;;17.57;39.71
40285;BME280;25997;50.214;19.354;2022-07-29T03:02:00;98039.00;;;17.65;39.97
40285;BME280;25997;50.214;19.354;2022-07-29T03:05:06;98043.41;;;17.72;39.98
40285;BME280;25997;50.214;19.354;2022-07-29T03:08:11;98042.50;;;17.78;39.91
40285;BME280;25997;50.214;19.354;2022-07-29T03:11:15;98040.75;;;17.77;39.57
40285;BME280;25997;50.214;19.354;2022-07-29T03:14:20;98038.97;;;17.77;39.90
40285;BME280;25997;50.214;19.354;2022-07-29T03:17:25;98035.44;;;17.75;39.61
40285;BME280;25997;50.214;19.354;2022-07-29T03:20:28;98034.53;;;17.73;40.06
40285;BME280;25997;50.214;19.354;2022-07-29T03:23:30;98027.47;;;17.72;39.76
40285;BME280;25997;50.214;19.354;2022-07-29T03:26:33;98034.53;;;17.69;39.97
40285;BME280;25997;50.214;19.354;2022-07-29T03:29:36;98031.03;;;17.68;40.30
40285;BME280;25997;50.214;19.354;2022-07-29T03:32:40;98025.69;;;17.71;40.50
40285;BME280;25997;50.214;19.354;2022-07-29T03:35:43;98037.22;;;17.67;40.65
40285;BME280;25997;50.214;19.354;2022-07-29T03:38:46;98029.22;;;17.69;40.67
40285;BME280;25997;50.214;19.354;2022-07-29T03:41:53;98026.56;;;17.69;40.79
40285;BME280;25997;50.214;19.354;2022-07-29T03:44:58;98029.22;;;17.73;40.56
40285;BME280;25997;50.214;19.354;2022-07-29T03:48:07;98025.69;;;17.77;40.53
40285;BME280;25997;50.214;19.354;2022-07-29T03:51:10;98024.78;;;17.78;40.89
40285;BME280;25997;50.214;19.354;2022-07-29T03:54:13;98029.22;;;17.84;40.62
40285;BME280;25997;50.214;19.354;2022-07-29T03:57:17;98027.41;;;17.87;40.47
40285;BME280;25997;50.214;19.354;2022-07-29T04:00:21;98029.22;;;17.84;40.65
40285;BME280;25997;50.214;19.354;2022-07-29T04:03:26;98027.44;;;17.81;40.86
40285;BME280;25997;50.214;19.354;2022-07-29T04:06:37;98030.97;;;17.85;40.64
40285;BME280;25997;50.214;19.354;2022-07-29T04:09:41;98022.09;;;17.84;41.25
40285;BME280;25997;50.214;19.354;2022-07-29T04:12:43;98027.44;;;17.83;41.14
40285;BME280;25997;50.214;19.354;2022-07-29T04:15:46;98023.91;;;17.79;40.97
40285;BME280;25997;50.214;19.354;2022-07-29T04:18:50;98019.50;;;17.72;41.18
40285;BME280;25997;50.214;19.354;2022-07-29T04:21:52;98022.16;;;17.69;41.51
40285;BME280;25997;50.214;19.354;2022-07-29T04:24:55;98026.56;;;17.72;41.77
40285;BME280;25997;50.214;19.354;2022-07-29T04:27:57;98032.75;;;17.78;41.68
40285;BME280;25997;50.214;19.354;2022-07-29T04:31:03;98027.44;;;17.86;41.75
40285;BME280;25997;50.214;19.354;2022-07-29T04:34:07;98025.66;;;17.97;41.79
40285;BME280;25997;50.214;19.354;2022-07-29T04:37:10;98032.69;;;18.13;41.96
40285;BME280;25997;50.214;19.354;2022-07-29T04:40:12;98030.81;;;18.27;41.87
40285;BME280;25997;50.214;19.354;2022-07-29T04:43:15;98021.91;;;18.36;41.64
40285;BME280;25997;50.214;19.354;2022-07-29T04:46:17;98028.94;;;18.47;41.57
40285;BME280;25997;50.214;19.354;2022-07-29T04:49:21;98031.56;;;18.59;41.58
40285;BME280;25997;50.214;19.354;2022-07-29T04:52:24;98024.44;;;18.68;41.87
40285;BME280;25997;50.214;19.354;2022-07-29T04:55:26;98019.91;;;18.79;41.67
40285;BME280;25997;50.214;19.354;2022-07-29T04:58:29;98020.69;;;18.97;41.61
40285;BME280;25997;50.214;19.354;2022-07-29T05:01:32;98011.69;;;19.12;41.46
40285;BME280;25997;50.214;19.354;2022-07-29T05:04:36;98019.53;;;19.28;41.39
40285;BME280;25997;50.214;19.354;2022-07-29T05:07:38;98011.47;;;19.39;41.23
40285;BME280;25997;50.214;19.354;2022-07-29T05:10:41;98012.28;;;19.49;41.20
40285;BME280;25997;50.214;19.354;2022-07-29T05:13:43;98012.19;;;19.58;41.27
40285;BME280;25997;50.214;19.354;2022-07-29T05:16:46;98014.72;;;19.68;41.18
40285;BME280;25997;50.214;19.354;2022-07-29T05:19:51;98002.22;;;19.75;41.32
40285;BME280;25997;50.214;19.354;2022-07-29T05:22:54;98008.34;;;19.81;41.13
40285;BME280;25997;50.214;19.354;2022-07-29T05:25:56;98002.94;;;19.87;40.99
40285;BME280;25997;50.214;19.354;2022-07-29T05:28:59;98007.41;;;19.85;41.07
40285;BME280;25997;50.214;19.354;2022-07-29T05:32:02;98004.88;;;19.75;41.52
40285;BME280;25997;50.214;19.354;2022-07-29T05:35:07;98004.97;;;19.69;41.47
40285;BME280;25997;50.214;19.354;2022-07-29T05:38:09;98014.66;;;19.71;41.23
40285;BME280;25997;50.214;19.354;2022-07-29T05:41:12;98009.31;;;19.77;41.52
40285;BME280;25997;50.214;19.354;2022-07-29T05:44:15;98010.91;;;19.92;41.32
40285;BME280;25997;50.214;19.354;2022-07-29T05:47:17;98013.34;;;20.13;41.32
40285;BME280;25997;50.214;19.354;2022-07-29T05:50:22;98018.47;;;20.28;41.22
40285;BME280;25997;50.214;19.354;2022-07-29T05:53:24;98025.38;;;20.43;41.12
40285;BME280;25997;50.214;19.354;2022-07-29T05:56:27;98029.50;;;20.68;41.01
40285;BME280;25997;50.214;19.354;2022-07-29T05:59:30;98025.53;;;20.96;40.81
40285;BME280;25997;50.214;19.354;2022-07-29T06:02:32;98023.31;;;21.22;40.23
40285;BME280;25997;50.214;19.354;2022-07-29T06:05:36;98026.53;;;21.44;39.89
40285;BME280;25997;50.214;19.354;2022-07-29T06:08:39;98026.47;;;21.48;39.72
40285;BME280;25997;50.214;19.354;2022-07-29T06:11:42;98020.00;;;21.60;39.59
40285;BME280;25997;50.214;19.354;2022-07-29T06:14:45;98022.38;;;21.77;39.73
40285;BME280;25997;50.214;19.354;2022-07-29T06:17:47;98026.53;;;21.91;39.43
40285;BME280;25997;50.214;19.354;2022-07-29T06:20:52;98021.13;;;21.94;39.63
40285;BME280;25997;50.214;19.354;2022-07-29T06:23:55;98026.28;;;22.05;39.72
40285;BME280;25997;50.214;19.354;2022-07-29T06:26:58;98021.88;;;22.04;39.10
40285;BME280;25997;50.214;19.354;2022-07-29T06:30:00;98036.00;;;22.09;39.12
40285;BME280;25997;50.214;19.354;2022-07-29T06:33:03;98036.75;;;22.17;38.84
40285;BME280;25997;50.214;19.354;2022-07-29T06:36:08;98032.13;;;22.27;39.07
40285;BME280;25997;50.214;19.354;2022-07-29T06:39:10;98041.78;;;22.32;38.51
40285;BME280;25997;50.214;19.354;2022-07-29T06:42:13;98041.59;;;22.41;38.33
40285;BME280;25997;50.214;19.354;2022-07-29T06:45:16;98031.88;;;22.37;38.79
40285;BME280;25997;50.214;19.354;2022-07-29T06:48:18;98030.09;;;22.36;38.88
40285;BME280;25997;50.214;19.354;2022-07-29T06:51:22;98028.91;;;22.49;38.52
40285;BME280;25997;50.214;19.354;2022-07-29T06:54:26;98019.00;;;22.54;38.64
40285;BME280;25997;50.214;19.354;2022-07-29T06:57:28;98027.03;;;22.54;38.45
40285;BME280;25997;50.214;19.354;2022-07-29T07:00:31;98026.75;;;22.68;38.18
40285;BME280;25997;50.214;19.354;2022-07-29T07:03:33;98025.56;;;22.81;38.32
40285;BME280;25997;50.214;19.354;2022-07-29T07:06:37;98020.84;;;22.92;38.21
40285;BME280;25997;50.214;19.354;2022-07-29T07:09:40;98016.31;;;22.94;37.77
40285;BME280;25997;50.214;19.354;2022-07-29T07:12:42;98025.81;;;23.07;38.20
40285;BME280;25997;50.214;19.354;2022-07-29T07:15:45;98022.78;;;23.24;37.65
40285;BME280;25997;50.214;19.354;2022-07-29T07:18:49;98017.63;;;23.50;37.92
40285;BME280;25997;50.214;19.354;2022-07-29T07:21:53;98027.56;;;23.80;37.64
40285;BME280;25997;50.214;19.354;2022-07-29T07:24:56;98022.50;;;24.02;37.24
40285;BME280;25997;50.214;19.354;2022-07-29T07:27:59;98031.06;;;24.14;37.17
40285;BME280;25997;50.214;19.354;2022-07-29T07:31:01;98024.66;;;24.20;36.71
40285;BME280;25997;50.214;19.354;2022-07-29T07:34:04;98035.88;;;24.36;36.71
40285;BME280;25997;50.214;19.354;2022-07-29T07:37:08;98029.25;;;24.47;36.05
40285;BME280;25997;50.214;19.354;2022-07-29T07:40:11;98030.06;;;24.51;36.04
40285;BME280;25997;50.214;19.354;2022-07-29T07:43:16;98033.09;;;24.68;35.98
40285;BME280;25997;50.214;19.354;2022-07-29T07:46:19;98031.97;;;24.75;36.15
40285;BME280;25997;50.214;19.354;2022-07-29T07:49:22;98034.47;;;24.81;36.14
40285;BME280;25997;50.214;19.354;2022-07-29T07:52:26;98034.06;;;24.94;35.98
40285;BME280;25997;50.214;19.354;2022-07-29T07:55:28;98028.50;;;25.00;36.07
40285;BME280;25997;50.214;19.354;2022-07-29T07:58:31;98033.59;;;25.10;36.23
40285;BME280;25997;50.214;19.354;2022-07-29T08:01:33;98032.22;;;25.24;36.10
40285;BME280;25997;50.214;19.354;2022-07-29T08:04:36;98023.78;;;25.35;35.92
40285;BME280;25997;50.214;19.354;2022-07-29T08:07:43;98025.94;;;25.51;34.96
40285;BME280;25997;50.214;19.354;2022-07-29T08:10:46;98031.31;;;25.51;35.57
40285;BME280;25997;50.214;19.354;2022-07-29T08:13:56;98025.34;;;25.42;35.02
40285;BME280;25997;50.214;19.354;2022-07-29T08:16:59;98025.09;;;25.49;35.21
40285;BME280;25997;50.214;19.354;2022-07-29T08:20:02;98025.69;;;25.59;35.06
40285;BME280;25997;50.214;19.354;2022-07-29T08:23:07;98032.31;;;25.49;34.82
40285;BME280;25997;50.214;19.354;2022-07-29T08:26:11;98038.56;;;25.49;34.65
40285;BME280;25997;50.214;19.354;2022-07-29T08:29:14;98041.91;;;25.56;34.36
40285;BME280;25997;50.214;19.354;2022-07-29T08:32:17;98039.31;;;25.79;34.28
40285;BME280;25997;50.214;19.354;2022-07-29T08:35:20;98040.69;;;25.66;34.25
40285;BME280;25997;50.214;19.354;2022-07-29T08:38:26;98043.75;;;25.80;34.31
40285;BME280;25997;50.214;19.354;2022-07-29T08:41:32;98032.28;;;26.01;34.00
40285;BME280;25997;50.214;19.354;2022-07-29T08:44:35;98022.38;;;26.26;33.86
40285;BME280;25997;50.214;19.354;2022-07-29T08:47:39;98026.78;;;26.29;33.98
40285;BME280;25997;50.214;19.354;2022-07-29T08:50:43;98025.22;;;26.45;33.89
40285;BME280;25997;50.214;19.354;2022-07-29T08:53:48;98047.59;;;26.72;34.07
40285;BME280;25997;50.214;19.354;2022-07-29T08:56:51;98030.41;;;26.97;33.47
40285;BME280;25997;50.214;19.354;2022-07-29T08:59:54;98034.84;;;26.98;32.62
40285;BME280;25997;50.214;19.354;2022-07-29T09:02:59;98034.25;;;27.13;33.14
40285;BME280;25997;50.214;19.354;2022-07-29T09:06:03;98034.50;;;27.29;32.76
40285;BME280;25997;50.214;19.354;2022-07-29T09:09:07;98040.91;;;27.70;32.17
40285;BME280;25997;50.214;19.354;2022-07-29T09:12:10;98032.91;;;27.67;32.18
40285;BME280;25997;50.214;19.354;2022-07-29T09:15:13;98027.63;;;27.85;32.27
40285;BME280;25997;50.214;19.354;2022-07-29T09:18:34;98030.78;;;27.95;31.11
40285;BME280;25997;50.214;19.354;2022-07-29T09:21:40;98034.31;;;27.97;32.06
40285;BME280;25997;50.214;19.354;2022-07-29T09:25:02;98028.53;;;28.05;31.76
40285;BME280;25997;50.214;19.354;2022-07-29T09:28:06;98029.13;;;28.33;31.92
40285;BME280;25997;50.214;19.354;2022-07-29T09:31:09;98036.25;;;28.34;31.67
40285;BME280;25997;50.214;19.354;2022-07-29T09:34:14;98042.22;;;28.42;31.72
40285;BME280;25997;50.214;19.354;2022-07-29T09:37:26;98028.34;;;28.29;31.29
40285;BME280;25997;50.214;19.354;2022-07-29T09:40:30;98029.81;;;28.18;31.85
40285;BME280;25997;50.214;19.354;2022-07-29T09:43:33;98020.13;;;28.32;31.78
40285;BME280;25997;50.214;19.354;2022-07-29T09:46:36;98007.06;;;28.61;31.23
40285;BME280;25997;50.214;19.354;2022-07-29T09:49:51;98006.72;;;29.05;30.37
40285;BME280;25997;50.214;19.354;2022-07-29T09:52:54;98007.28;;;29.13;31.03
40285;BME280;25997;50.214;19.354;2022-07-29T09:55:59;98008.25;;;29.65;30.45
40285;BME280;25997;50.214;19.354;2022-07-29T09:59:05;98000.69;;;29.72;30.03
40285;BME280;25997;50.214;19.354;2022-07-29T10:02:11;98001.34;;;30.11;29.51
40285;BME280;25997;50.214;19.354;2022-07-29T10:05:19;98001.41;;;30.59;28.62
40285;BME280;25997;50.214;19.354;2022-07-29T10:08:25;98003.53;;;30.86;29.17
40285;BME280;25997;50.214;19.354;2022-07-29T10:11:29;98001.00;;;31.29;28.75
40285;BME280;25997;50.214;19.354;2022-07-29T10:14:32;97996.34;;;31.63;28.65
40285;BME280;25997;50.214;19.354;2022-07-29T10:17:35;97995.75;;;31.87;28.32
40285;BME280;25997;50.214;19.354;2022-07-29T10:20:40;97996.63;;;32.32;28.01
40285;BME280;25997;50.214;19.354;2022-07-29T10:23:43;97992.84;;;32.76;27.23
40285;BME280;25997;50.214;19.354;2022-07-29T10:26:49;97996.06;;;33.11;26.25
40285;BME280;25997;50.214;19.354;2022-07-29T10:29:53;97997.22;;;32.79;26.26
40285;BME280;25997;50.214;19.354;2022-07-29T10:36:38;97981.28;;;32.87;25.09
40285;BME280;25997;50.214;19.354;2022-07-29T10:39:51;97996.88;;;32.71;25.19
40285;BME280;25997;50.214;19.354;2022-07-29T10:43:03;97989.28;;;32.90;25.54
40285;BME280;25997;50.214;19.354;2022-07-29T10:46:10;97991.72;;;33.35;26.12
40285;BME280;25997;50.214;19.354;2022-07-29T10:49:15;97977.63;;;33.56;25.68
40285;BME280;25997;50.214;19.354;2022-07-29T10:52:20;97988.91;;;33.76;25.32
40285;BME280;25997;50.214;19.354;2022-07-29T10:55:33;97982.28;;;33.27;24.60
40285;BME280;25997;50.214;19.354;2022-07-29T10:58:40;97982.09;;;32.61;25.53
40285;BME280;25997;50.214;19.354;2022-07-29T11:01:43;97982.63;;;32.24;26.16
40285;BME280;25997;50.214;19.354;2022-07-29T11:04:59;97980.75;;;31.96;25.89
40285;BME280;25997;50.214;19.354;2022-07-29T11:08:23;97980.81;;;31.65;26.68
40285;BME280;25997;50.214;19.354;2022-07-29T11:11:32;97972.16;;;31.58;26.37
40285;BME280;25997;50.214;19.354;2022-07-29T11:14:57;97970.97;;;32.07;26.27
40285;BME280;25997;50.214;19.354;2022-07-29T11:18:04;97975.44;;;32.23;26.70
40285;BME280;25997;50.214;19.354;2022-07-29T11:21:36;97970.09;;;32.07;25.62
40285;BME280;25997;50.214;19.354;2022-07-29T11:24:39;97972.00;;;31.91;26.17
40285;BME280;25997;50.214;19.354;2022-07-29T11:27:42;97968.66;;;32.30;26.22
40285;BME280;25997;50.214;19.354;2022-07-29T11:30:51;97975.13;;;33.12;25.55
40285;BME280;25997;50.214;19.354;2022-07-29T11:33:54;97961.16;;;33.57;24.59
40285;BME280;25997;50.214;19.354;2022-07-29T11:37:16;97961.72;;;34.01;23.92
40285;BME280;25997;50.214;19.354;2022-07-29T11:40:20;97963.00;;;33.96;24.75
40285;BME280;25997;50.214;19.354;2022-07-29T11:43:46;97954.66;;;33.72;23.46
40285;BME280;25997;50.214;19.354;2022-07-29T11:46:50;97965.84;;;33.28;24.68
40285;BME280;25997;50.214;19.354;2022-07-29T11:49:54;97958.91;;;32.96;24.99
40285;BME280;25997;50.214;19.354;2022-07-29T11:52:58;97956.81;;;32.45;25.36
40285;BME280;25997;50.214;19.354;2022-07-29T11:56:00;97958.00;;;32.27;25.15
40285;BME280;25997;50.214;19.354;2022-07-29T11:59:04;97964.16;;;33.13;25.53
40285;BME280;25997;50.214;19.354;2022-07-29T12:02:08;97956.25;;;34.14;23.78
40285;BME280;25997;50.214;19.354;2022-07-29T12:05:11;97961.09;;;34.61;24.10
40285;BME280;25997;50.214;19.354;2022-07-29T12:08:15;97964.59;;;35.12;23.48
40285;BME280;25997;50.214;19.354;2022-07-29T12:11:20;97959.72;;;35.04;22.81
40285;BME280;25997;50.214;19.354;2022-07-29T12:14:26;97944.91;;;35.19;22.48
40285;BME280;25997;50.214;19.354;2022-07-29T12:17:32;97961.63;;;35.38;23.14
40285;BME280;25997;50.214;19.354;2022-07-29T12:20:35;97946.16;;;35.97;22.70
40285;BME280;25997;50.214;19.354;2022-07-29T12:23:38;97948.97;;;36.31;22.01
40285;BME280;25997;50.214;19.354;2022-07-29T12:26:49;97952.13;;;36.02;21.12
40285;BME280;25997;50.214;19.354;2022-07-29T12:29:56;97949.94;;;36.30;21.51
40285;BME280;25997;50.214;19.354;2022-07-29T12:33:00;97950.31;;;36.36;21.89
40285;BME280;25997;50.214;19.354;2022-07-29T12:36:02;97947.25;;;35.95;21.81
40285;BME280;25997;50.214;19.354;2022-07-29T12:39:05;97943.03;;;35.91;21.94
40285;BME280;25997;50.214;19.354;2022-07-29T12:42:13;97937.91;;;35.86;22.10
40285;BME280;25997;50.214;19.354;2022-07-29T12:45:17;97940.91;;;36.40;21.88
40285;BME280;25997;50.214;19.354;2022-07-29T12:48:34;97939.28;;;36.93;20.72
40285;BME280;25997;50.214;19.354;2022-07-29T12:51:38;97939.31;;;37.47;20.27
40285;BME280;25997;50.214;19.354;2022-07-29T12:54:47;97928.94;;;37.50;19.92
40285;BME280;25997;50.214;19.354;2022-07-29T12:57:50;97928.84;;;36.87;20.85
40285;BME280;25997;50.214;19.354;2022-07-29T13:01:05;97929.09;;;36.73;20.74
40285;BME280;25997;50.214;19.354;2022-07-29T13:04:09;97924.84;;;36.91;20.74
40285;BME280;25997;50.214;19.354;2022-07-29T13:07:12;97924.50;;;37.27;20.84
40285;BME280;25997;50.214;19.354;2022-07-29T13:10:16;97932.63;;;37.60;20.52
40285;BME280;25997;50.214;19.354;2022-07-29T13:13:19;97929.13;;;37.27;20.31
40285;BME280;25997;50.214;19.354;2022-07-29T13:16:22;97933.06;;;36.91;20.29
40285;BME280;25997;50.214;19.354;2022-07-29T13:19:35;97921.38;;;36.56;20.84
40285;BME280;25997;50.214;19.354;2022-07-29T13:22:38;97921.53;;;35.97;21.36
40285;BME280;25997;50.214;19.354;2022-07-29T13:25:41;97910.78;;;35.83;21.84
40285;BME280;25997;50.214;19.354;2022-07-29T13:28:43;97911.91;;;35.46;22.18
40285;BME280;25997;50.214;19.354;2022-07-29T13:31:46;97903.97;;;35.30;22.47
40285;BME280;25997;50.214;19.354;2022-07-29T13:34:50;97902.41;;;35.39;22.05
40285;BME280;25997;50.214;19.354;2022-07-29T13:37:52;97890.66;;;35.49;21.91
40285;BME280;25997;50.214;19.354;2022-07-29T13:40:55;97893.47;;;35.72;21.47
40285;BME280;25997;50.214;19.354;2022-07-29T13:43:57;97886.00;;;35.74;21.76
40285;BME280;25997;50.214;19.354;2022-07-29T13:47:00;97877.03;;;35.95;21.29
40285;BME280;25997;50.214;19.354;2022-07-29T13:50:06;97882.53;;;35.83;21.71
40285;BME280;25997;50.214;19.354;2022-07-29T13:53:09;97873.09;;;36.33;20.96
40285;BME280;25997;50.214;19.354;2022-07-29T13:56:11;97869.44;;;36.65;21.00
40285;BME280;25997;50.214;19.354;2022-07-29T13:59:14;97866.97;;;36.62;20.60
40285;BME280;25997;50.214;19.354;2022-07-29T14:02:16;97854.41;;;36.82;20.59
40285;BME280;25997;50.214;19.354;2022-07-29T14:05:21;97855.84;;;36.97;20.58
40285;BME280;25997;50.214;19.354;2022-07-29T14:08:23;97854.94;;;37.08;20.67
40285;BME280;25997;50.214;19.354;2022-07-29T14:11:26;97857.66;;;37.19;20.20
40285;BME280;25997;50.214;19.354;2022-07-29T14:14:29;97850.13;;;37.32;20.03
40285;BME280;25997;50.214;19.354;2022-07-29T14:17:32;97848.19;;;37.43;20.08
40285;BME280;25997;50.214;19.354;2022-07-29T14:20:36;97843.09;;;37.71;19.67
40285;BME280;25997;50.214;19.354;2022-07-29T14:23:39;97851.38;;;37.80;19.78
40285;BME280;25997;50.214;19.354;2022-07-29T14:26:41;97845.50;;;37.85;19.45
40285;BME280;25997;50.214;19.354;2022-07-29T14:29:44;97848.81;;;36.72;19.93
40285;BME280;25997;50.214;19.354;2022-07-29T14:32:46;97848.59;;;35.63;20.49
40285;BME280;25997;50.214;19.354;2022-07-29T14:35:50;97842.53;;;34.89;21.21
40285;BME280;25997;50.214;19.354;2022-07-29T14:38:53;97832.84;;;33.87;21.83
40285;BME280;25997;50.214;19.354;2022-07-29T14:41:55;97830.72;;;33.53;22.07
40285;BME280;25997;50.214;19.354;2022-07-29T14:44:58;97812.84;;;33.74;22.37
40285;BME280;25997;50.214;19.354;2022-07-29T14:48:01;97820.38;;;34.57;21.73
40285;BME280;25997;50.214;19.354;2022-07-29T14:51:05;97825.19;;;34.53;21.61
40285;BME280;25997;50.214;19.354;2022-07-29T14:54:07;97824.16;;;34.31;21.74
40285;BME280;25997;50.214;19.354;2022-07-29T14:57:10;97816.88;;;34.19;22.07
40285;BME280;25997;50.214;19.354;2022-07-29T15:00:13;97811.09;;;33.60;22.10
40285;BME280;25997;50.214;19.354;2022-07-29T15:03:16;97818.25;;;32.97;22.79
40285;BME280;25997;50.214;19.354;2022-07-29T15:06:20;97802.66;;;32.86;22.89
40285;BME280;25997;50.214;19.354;2022-07-29T15:09:23;97799.88;;;33.52;22.84
40285;BME280;25997;50.214;19.354;2022-07-29T15:12:26;97810.13;;;33.74;22.69
40285;BME280;25997;50.214;19.354;2022-07-29T15:15:28;97812.97;;;33.97;22.41
40285;BME280;25997;50.214;19.354;2022-07-29T15:18:31;97810.44;;;33.69;22.10
40285;BME280;25997;50.214;19.354;2022-07-29T15:21:35;97815.22;;;33.01;22.60
40285;BME280;25997;50.214;19.354;2022-07-29T15:24:38;97829.78;;;32.33;23.37
40285;BME280;25997;50.214;19.354;2022-07-29T15:27:40;97827.16;;;31.61;24.33
40285;BME280;25997;50.214;19.354;2022-07-29T15:30:43;97826.69;;;31.24;24.00
40285;BME280;25997;50.214;19.354;2022-07-29T15:33:45;97835.34;;;30.86;24.66
40285;BME280;25997;50.214;19.354;2022-07-29T15:36:50;97839.78;;;30.57;25.04
40285;BME280;25997;50.214;19.354;2022-07-29T15:39:52;97845.06;;;30.27;25.22
40285;BME280;25997;50.214;19.354;2022-07-29T15:42:55;97850.41;;;29.96;25.41
40285;BME280;25997;50.214;19.354;2022-07-29T15:45:58;97848.69;;;29.62;26.40
40285;BME280;25997;50.214;19.354;2022-07-29T15:49:18;97846.38;;;29.38;26.04
40285;BME280;25997;50.214;19.354;2022-07-29T15:52:22;97842.81;;;29.20;26.78
40285;BME280;25997;50.214;19.354;2022-07-29T15:55:24;97838.09;;;29.06;26.44
40285;BME280;25997;50.214;19.354;2022-07-29T15:58:27;97843.53;;;29.05;26.94
40285;BME280;25997;50.214;19.354;2022-07-29T16:01:29;97832.97;;;29.00;27.03
40285;BME280;25997;50.214;19.354;2022-07-29T16:04:32;97838.28;;;28.85;27.12
40285;BME280;25997;50.214;19.354;2022-07-29T16:07:36;97847.38;;;28.84;27.46
40285;BME280;25997;50.214;19.354;2022-07-29T16:10:39;97847.03;;;28.90;27.18